Time;durP1;ratioP1;P1;durP2;ratioP2;P2;SDS_P1;SDS_P2;PMS_P1;PMS_P2;Temp;Humidity;BMP_temperature;BMP_pressure;BME280_temperature;BME280_humidity;BME280_pressure;Samples;Min_cycle;Max_cycle;Signal;HPM_P1;HPM_P2
2022/07/21 00:02:01;;;;;;;708.20;656.13;;;18.10;99.90;;;;;;5016798;28;20488;-82
2022/07/21 00:04:29;;;;;;;696.63;648.33;;;18.10;99.90;;;;;;4999666;28;20824;-83
2022/07/21 00:06:56;;;;;;;696.43;648.33;;;18.00;99.90;;;;;;5000335;28;20450;-83
2022/07/21 00:09:23;;;;;;;668.13;622.10;;;18.00;99.90;;;;;;5019799;28;20472;-83
2022/07/21 00:11:49;;;;;;;655.83;610.57;;;17.90;99.90;;;;;;5018985;28;20472;-83
2022/07/21 00:14:16;;;;;;;669.27;623.87;;;17.90;99.90;;;;;;4999182;28;20479;-83
2022/07/21 00:16:43;;;;;;;664.37;614.67;;;17.90;99.90;;;;;;4999497;28;20457;-82
2022/07/21 00:19:11;;;;;;;658.37;606.90;;;17.90;99.90;;;;;;5017736;28;20464;-83
2022/07/21 00:21:39;;;;;;;657.97;604.20;;;18.00;99.90;;;;;;5019191;28;20515;-83
2022/07/21 00:24:06;;;;;;;675.13;619.77;;;17.90;99.90;;;;;;5002698;28;20457;-82
2022/07/21 00:26:33;;;;;;;677.10;619.97;;;18.00;99.90;;;;;;5006697;28;20961;-83
2022/07/21 00:29:00;;;;;;;696.30;636.50;;;18.00;99.90;;;;;;5017790;28;20979;-82
2022/07/21 00:31:27;;;;;;;747.83;685.47;;;18.00;99.90;;;;;;5019343;28;20463;-83
2022/07/21 00:33:54;;;;;;;757.97;693.87;;;18.00;99.90;;;;;;5018557;28;20507;-83
2022/07/21 00:36:22;;;;;;;797.10;730.60;;;18.00;99.90;;;;;;5013413;28;20456;-82
2022/07/21 00:38:50;;;;;;;794.87;726.87;;;18.00;99.90;;;;;;4998724;28;20989;-83
2022/07/21 00:41:17;;;;;;;848.57;777.20;;;18.00;99.90;;;;;;4999804;28;20450;-82
2022/07/21 00:43:44;;;;;;;853.90;779.73;;;18.00;99.90;;;;;;4998890;28;20460;-83
2022/07/21 00:46:11;;;;;;;827.37;751.67;;;18.00;99.90;;;;;;4999896;28;20464;-83
2022/07/21 00:48:38;;;;;;;857.17;777.20;;;18.00;99.90;;;;;;4999988;28;20471;-83
2022/07/21 00:51:05;;;;;;;836.90;758.50;;;18.10;99.90;;;;;;5012683;28;20437;-83
2022/07/21 00:53:32;;;;;;;868.33;786.60;;;18.00;99.90;;;;;;5018031;28;20484;-83
2022/07/21 00:56:00;;;;;;;869.23;787.50;;;18.10;99.90;;;;;;5005939;28;20476;-83
2022/07/21 00:58:27;;;;;;;905.67;824.07;;;18.10;99.90;;;;;;4998634;28;20456;-83
2022/07/21 01:00:54;;;;;;;899.00;820.20;;;18.20;99.90;;;;;;5009153;28;20455;-83
2022/07/21 01:03:20;;;;;;;874.70;797.40;;;18.20;99.90;;;;;;5013598;28;20476;-83
2022/07/21 01:05:47;;;;;;;817.73;743.53;;;18.20;99.90;;;;;;4999356;28;20453;-83
2022/07/21 01:08:15;;;;;;;780.63;705.50;;;18.10;99.90;;;;;;4998259;28;20457;-84
2022/07/21 01:10:42;;;;;;;757.33;680.33;;;18.10;99.90;;;;;;4999327;28;20460;-83
2022/07/21 01:13:10;;;;;;;734.70;658.03;;;18.10;99.90;;;;;;4998048;28;20481;-81
2022/07/21 01:15:37;;;;;;;722.67;645.40;;;18.20;99.90;;;;;;5011743;28;20479;-83
2022/07/21 01:18:04;;;;;;;717.33;640.17;;;18.20;99.90;;;;;;5018647;28;20472;-83
2022/07/21 01:20:35;;;;;;;728.40;651.00;;;18.20;99.90;;;;;;5017222;28;20478;-82
2022/07/21 01:23:04;;;;;;;705.50;630.10;;;18.20;99.90;;;;;;5006676;28;20593;-82
2022/07/21 01:25:30;;;;;;;703.40;628.27;;;18.20;99.90;;;;;;4998785;28;20454;-82
2022/07/21 01:27:57;;;;;;;716.00;640.17;;;18.10;99.90;;;;;;5016204;28;20456;-84
2022/07/21 01:30:24;;;;;;;717.50;640.90;;;18.10;99.90;;;;;;5017011;28;20490;-82
2022/07/21 01:32:51;;;;;;;706.30;630.80;;;18.20;99.90;;;;;;4998932;28;20481;-82
2022/07/21 01:35:18;;;;;;;706.33;630.03;;;18.20;99.90;;;;;;4996445;28;20963;-82
2022/07/21 01:37:46;;;;;;;710.10;634.83;;;18.20;99.90;;;;;;5011761;28;20456;-81
2022/07/21 01:43:01;;;;;;;696.23;624.17;;;18.20;99.90;;;;;;4999294;28;20492;-84
2022/07/21 01:45:28;;;;;;;699.60;626.60;;;18.20;99.90;;;;;;4997820;28;20458;-83
2022/07/21 01:47:55;;;;;;;709.53;637.80;;;18.20;99.90;;;;;;5013480;28;20544;-84
2022/07/21 01:50:26;;;;;;;719.17;647.67;;;18.20;99.90;;;;;;5016879;28;20463;-82
2022/07/21 01:52:53;;;;;;;713.30;642.83;;;18.20;99.90;;;;;;5001502;28;20481;-83
2022/07/21 01:55:22;;;;;;;716.17;648.67;;;18.10;99.90;;;;;;5005892;28;20490;-84
2022/07/21 01:58:07;;;;;;;718.93;652.03;;;18.10;99.90;;;;;;5013077;28;20456;-85
2022/07/21 02:00:34;;;;;;;716.87;650.10;;;18.20;99.90;;;;;;5002301;28;20460;-81
2022/07/21 02:03:00;;;;;;;716.03;647.87;;;18.20;99.90;;;;;;4997309;28;20694;-80
2022/07/21 02:05:27;;;;;;;714.47;646.37;;;18.20;99.90;;;;;;4995938;28;20469;-80
2022/07/21 02:07:54;;;;;;;719.90;653.17;;;18.20;99.90;;;;;;4996345;28;20465;-80
2022/07/21 02:10:22;;;;;;;718.20;650.90;;;18.20;99.90;;;;;;4997381;28;20459;-80
2022/07/21 02:12:49;;;;;;;728.73;665.60;;;18.20;99.90;;;;;;5002306;28;20580;-80
2022/07/21 02:15:16;;;;;;;727.63;663.53;;;18.30;99.90;;;;;;4996058;28;20473;-80
2022/07/21 02:17:42;;;;;;;726.90;661.50;;;18.40;99.90;;;;;;4993873;28;20468;-80
2022/07/21 02:20:10;;;;;;;721.50;656.57;;;18.30;99.90;;;;;;4986663;28;20463;-79
2022/07/21 02:22:37;;;;;;;715.00;649.47;;;18.30;99.90;;;;;;5015446;28;20826;-84
2022/07/21 02:25:04;;;;;;;725.40;662.80;;;18.30;99.90;;;;;;5016397;28;20453;-82
2022/07/21 02:27:32;;;;;;;710.83;647.40;;;18.40;99.90;;;;;;5012051;28;20453;-83
2022/07/21 02:29:59;;;;;;;707.30;645.93;;;18.30;99.90;;;;;;5016904;28;20460;-84
2022/07/21 02:32:26;;;;;;;703.27;642.27;;;18.30;99.90;;;;;;5015523;28;20455;-83
2022/07/21 02:34:52;;;;;;;718.70;657.33;;;18.30;99.90;;;;;;5006858;28;20478;-83
2022/07/21 02:37:19;;;;;;;729.53;668.13;;;18.30;99.90;;;;;;4998291;28;20465;-84
2022/07/21 02:39:46;;;;;;;727.33;665.77;;;18.30;99.90;;;;;;4999363;28;20461;-83
2022/07/21 02:42:13;;;;;;;743.97;683.37;;;18.30;99.90;;;;;;4998383;28;20472;-84
2022/07/21 02:44:41;;;;;;;747.00;685.43;;;18.30;99.90;;;;;;4998736;28;20454;-83
2022/07/21 02:47:07;;;;;;;746.93;686.17;;;18.30;99.90;;;;;;4998508;28;20461;-84
2022/07/21 02:49:34;;;;;;;754.50;693.50;;;18.30;99.90;;;;;;4998702;28;20473;-85
2022/07/21 02:52:01;;;;;;;759.60;700.23;;;18.30;99.90;;;;;;4998771;28;20482;-84
2022/07/21 02:54:28;;;;;;;765.73;707.67;;;18.30;99.90;;;;;;5000619;28;20463;-84
2022/07/21 02:56:54;;;;;;;760.97;700.57;;;18.30;99.90;;;;;;4998692;28;20461;-83
2022/07/21 02:59:21;;;;;;;775.00;713.50;;;18.30;99.90;;;;;;4998210;28;20830;-84
2022/07/21 03:01:49;;;;;;;766.10;699.83;;;18.20;99.90;;;;;;5000593;28;20480;-84
2022/07/21 03:04:16;;;;;;;776.67;708.70;;;18.20;99.90;;;;;;5018911;28;20456;-84
2022/07/21 03:06:43;;;;;;;769.07;700.70;;;18.20;99.90;;;;;;5008909;28;20530;-84
2022/07/21 03:09:10;;;;;;;755.60;687.60;;;18.20;99.90;;;;;;4997779;28;20469;-83
2022/07/21 03:11:37;;;;;;;750.73;684.13;;;18.20;99.90;;;;;;5000386;28;20481;-84
2022/07/21 03:14:04;;;;;;;738.53;672.50;;;18.20;99.90;;;;;;4997297;28;20461;-84
2022/07/21 03:16:31;;;;;;;746.03;679.13;;;18.20;99.90;;;;;;4997170;28;20488;-84
2022/07/21 03:18:59;;;;;;;731.23;663.00;;;18.20;99.90;;;;;;4996984;28;20456;-84
2022/07/21 03:21:25;;;;;;;734.13;665.73;;;18.30;99.90;;;;;;5001050;28;20473;-85
2022/07/21 03:23:52;;;;;;;743.87;672.87;;;18.20;99.90;;;;;;5016035;28;20455;-84
2022/07/21 03:26:19;;;;;;;738.50;667.80;;;18.20;99.90;;;;;;5014530;28;20461;-85
2022/07/21 03:28:46;;;;;;;743.13;675.13;;;18.20;99.90;;;;;;4997414;28;20639;-85
2022/07/21 03:31:13;;;;;;;746.13;675.60;;;18.30;99.90;;;;;;4998411;28;20462;-85
2022/07/21 03:33:39;;;;;;;747.77;680.00;;;18.30;99.90;;;;;;4997611;28;20473;-84
2022/07/21 03:36:08;;;;;;;750.60;684.80;;;18.30;99.90;;;;;;5005532;28;20474;-84
2022/07/21 03:38:35;;;;;;;747.07;679.40;;;18.20;99.90;;;;;;5014693;28;20475;-83
2022/07/21 03:41:02;;;;;;;750.87;682.93;;;18.30;99.90;;;;;;4996575;28;20463;-84
2022/07/21 03:43:29;;;;;;;754.73;689.80;;;18.20;99.90;;;;;;4998357;28;20485;-84
2022/07/21 03:45:56;;;;;;;754.73;688.87;;;18.20;99.90;;;;;;5016460;28;20466;-84
2022/07/21 03:48:22;;;;;;;758.93;698.37;;;18.20;99.90;;;;;;5016147;28;20459;-84
2022/07/21 03:50:49;;;;;;;764.00;703.63;;;18.20;99.90;;;;;;4978174;28;20430;-84
2022/07/21 03:53:17;;;;;;;762.13;697.70;;;18.20;99.90;;;;;;4978734;28;20459;-84
2022/07/21 03:55:45;;;;;;;766.63;705.00;;;18.20;99.90;;;;;;4998284;28;20853;-83
2022/07/21 03:58:13;;;;;;;774.23;713.10;;;18.20;99.90;;;;;;4996994;28;20499;-84
2022/07/21 04:00:43;;;;;;;765.23;703.83;;;18.20;99.90;;;;;;4998932;28;20829;-79
2022/07/21 04:03:10;;;;;;;770.67;713.30;;;18.10;99.90;;;;;;4999633;28;20472;-82
2022/07/21 04:05:38;;;;;;;770.50;711.10;;;18.20;99.90;;;;;;5017177;28;20953;-81
2022/07/21 04:08:06;;;;;;;766.43;707.33;;;18.10;99.90;;;;;;5019199;28;20841;-85
2022/07/21 04:10:36;;;;;;;759.97;711.00;;;18.20;99.90;;;;;;4992644;28;20464;-84
2022/07/21 04:13:05;;;;;;;769.07;716.30;;;18.20;99.90;;;;;;5001720;28;20477;-85
2022/07/21 04:15:33;;;;;;;762.20;712.03;;;18.20;99.90;;;;;;4983977;28;20853;-84
2022/07/21 04:18:01;;;;;;;757.20;705.53;;;18.20;99.90;;;;;;5001329;28;20462;-84
2022/07/21 04:20:28;;;;;;;759.27;708.40;;;18.30;99.90;;;;;;5004727;28;20463;-84
2022/07/21 04:22:55;;;;;;;764.77;710.87;;;18.30;99.90;;;;;;5001322;28;20785;-84
2022/07/21 04:25:22;;;;;;;762.17;706.13;;;18.30;99.90;;;;;;5001025;28;20469;-84
2022/07/21 04:27:52;;;;;;;753.90;695.67;;;18.30;99.90;;;;;;5000177;28;20454;-84
2022/07/21 04:30:23;;;;;;;764.77;706.70;;;18.40;99.90;;;;;;5001998;28;20457;-84
2022/07/21 04:32:50;;;;;;;760.73;696.83;;;18.50;99.90;;;;;;4999912;28;20477;-82
2022/07/21 04:35:17;;;;;;;753.00;692.53;;;18.50;99.90;;;;;;5006289;28;20477;-82
2022/07/21 04:37:45;;;;;;;750.80;687.73;;;18.60;99.90;;;;;;5021738;28;20456;-82
2022/07/21 04:40:13;;;;;;;755.37;692.33;;;18.60;99.90;;;;;;5017949;28;20432;-83
2022/07/21 04:42:40;;;;;;;768.40;704.97;;;18.70;99.90;;;;;;5002511;28;20484;-83
2022/07/21 04:45:11;;;;;;;746.83;684.13;;;18.80;99.90;;;;;;5015715;28;20954;-83
2022/07/21 04:47:48;;;;;;;758.17;694.93;;;18.80;99.90;;;;;;5022143;28;20457;-83
2022/07/21 04:50:15;;;;;;;758.60;698.03;;;18.90;99.90;;;;;;5007117;28;20425;-83
2022/07/21 04:56:03;;;;;;;763.73;707.33;;;19.00;99.90;;;;;;5016676;28;20928;-82
2022/07/21 04:59:08;;;;;;;768.90;712.73;;;19.10;99.90;;;;;;4990223;28;20482;-82
2022/07/21 05:02:12;;;;;;;780.00;726.27;;;19.30;99.90;;;;;;4990582;28;20470;-82
2022/07/21 05:05:01;;;;;;;776.60;724.80;;;19.30;99.90;;;;;;4990232;28;20457;-83
2022/07/21 05:07:39;;;;;;;786.13;735.67;;;19.40;99.90;;;;;;5018214;28;20480;-83
2022/07/21 05:10:24;;;;;;;;;;;;;;;;;;;;;
2022/07/21 05:16:29;;;;;;;758.50;715.07;;;19.40;99.90;;;;;;5021237;28;20489;-83
2022/07/21 05:18:58;;;;;;;760.73;716.93;;;19.50;99.90;;;;;;5021091;28;20831;-83
2022/07/21 05:21:24;;;;;;;755.70;713.30;;;19.40;99.90;;;;;;5013469;28;20448;-83
2022/07/21 05:23:51;;;;;;;759.50;716.27;;;19.40;99.90;;;;;;5017862;28;20523;-81
2022/07/21 05:26:18;;;;;;;731.83;694.27;;;19.40;99.90;;;;;;5022622;28;20453;-83
2022/07/21 05:28:54;;;;;;;768.77;725.00;;;19.40;99.90;;;;;;5022697;28;20972;-82
2022/07/21 05:34:04;;;;;;;709.10;674.70;;;19.40;99.90;;;;;;5102651;23;20478;-84
2022/07/21 05:40:09;;;;;;;640.83;612.43;;;19.50;99.90;;;;;;4851845;29;20775;-84
2022/07/21 05:43:13;;;;;;;568.30;545.73;;;19.60;99.90;;;;;;4919641;29;20459;-85
2022/07/21 06:10:53;;;;;;;420.70;405.30;;;19.70;99.90;;;;;;4945271;28;20470;-85
2022/07/21 06:14:02;;;;;;;510.77;490.43;;;19.80;99.90;;;;;;4980143;28;20480;-84
2022/07/21 06:16:29;;;;;;;352.83;340.60;;;20.20;99.90;;;;;;4995086;28;20466;-83
2022/07/21 06:18:58;;;;;;;274.95;265.63;;;20.60;99.90;;;;;;4998613;28;20467;-85
2022/07/21 06:21:28;;;;;;;197.43;190.37;;;20.60;99.90;;;;;;5000246;28;20202;-82
2022/07/21 06:23:56;;;;;;;174.80;168.40;;;20.70;99.90;;;;;;4999980;28;20875;-82
2022/07/21 06:26:33;;;;;;;105.60;101.00;;;20.70;99.90;;;;;;4999254;28;20455;-83
2022/07/21 06:29:00;;;;;;;74.27;70.47;;;20.70;99.90;;;;;;4998764;28;20462;-82
2022/07/21 06:31:27;;;;;;;59.20;56.37;;;20.70;99.90;;;;;;4999340;28;20489;-83
2022/07/21 06:33:54;;;;;;;53.10;50.17;;;20.60;99.90;;;;;;4998941;28;20975;-83
2022/07/21 06:36:21;;;;;;;66.87;63.50;;;20.60;99.90;;;;;;4999719;28;20479;-82
2022/07/21 06:38:48;;;;;;;67.57;64.33;;;20.50;99.90;;;;;;4997321;28;20463;-83
2022/07/21 06:41:16;;;;;;;37.30;35.07;;;20.40;99.90;;;;;;4999408;28;20467;-83
2022/07/21 06:43:43;;;;;;;60.53;57.37;;;20.30;99.90;;;;;;4999152;28;20545;-83
2022/07/21 06:46:10;;;;;;;81.10;77.30;;;20.30;99.90;;;;;;4999361;28;20457;-82
2022/07/21 06:48:37;;;;;;;68.23;64.77;;;20.50;99.90;;;;;;4999109;28;20454;-83
2022/07/21 06:51:04;;;;;;;20.33;18.43;;;20.80;99.90;;;;;;4998528;28;20476;-82
2022/07/21 06:53:31;;;;;;;18.07;16.27;;;21.20;99.90;;;;;;5000327;28;20482;-82
2022/07/21 06:55:57;;;;;;;14.60;13.20;;;21.60;99.90;;;;;;4999794;28;20480;-82
2022/07/21 06:58:27;;;;;;;14.70;11.23;;;22.10;99.90;;;;;;5000607;28;20972;-82
2022/07/21 07:00:54;;;;;;;13.30;10.60;;;22.30;99.90;;;;;;4998592;28;20473;-80
2022/07/21 07:03:21;;;;;;;9.70;7.37;;;22.60;99.90;;;;;;4997024;28;20474;-80
2022/07/21 07:05:49;;;;;;;12.70;7.80;;;22.70;99.60;;;;;;4997179;28;20458;-81
2022/07/21 07:08:16;;;;;;;10.50;7.47;;;23.20;99.20;;;;;;4997652;28;20820;-80
2022/07/21 07:10:45;;;;;;;12.63;8.53;;;22.60;98.60;;;;;;4997508;28;20836;-80
2022/07/21 07:13:15;;;;;;;10.60;7.70;;;22.50;99.90;;;;;;4997635;28;20478;-81
2022/07/21 07:15:43;;;;;;;11.73;8.03;;;22.60;98.90;;;;;;4997498;28;20465;-80
2022/07/21 07:18:09;;;;;;;11.83;7.23;;;22.50;97.50;;;;;;4998297;28;20837;-80
2022/07/21 07:20:36;;;;;;;10.90;7.27;;;22.50;96.50;;;;;;4998748;28;20457;-80
2022/07/21 07:23:03;;;;;;;11.73;7.60;;;22.60;96.20;;;;;;4999146;28;20472;-80
2022/07/21 07:25:33;;;;;;;11.10;8.10;;;22.60;95.70;;;;;;4998220;28;20457;-80
2022/07/21 07:28:00;;;;;;;12.03;7.70;;;22.80;95.30;;;;;;5000164;28;20455;-80
2022/07/21 07:30:27;;;;;;;12.80;7.47;;;23.00;92.10;;;;;;4998863;28;20458;-81
2022/07/21 07:32:55;;;;;;;12.20;6.83;;;23.40;93.10;;;;;;4998072;28;20482;-81
2022/07/21 07:35:22;;;;;;;11.23;7.20;;;23.60;90.50;;;;;;4999822;28;20452;-81
2022/07/21 07:37:49;;;;;;;12.00;7.00;;;24.20;88.70;;;;;;5001666;28;20454;-82
2022/07/21 07:40:18;;;;;;;9.03;6.53;;;24.60;87.00;;;;;;5009327;28;20465;-80
2022/07/21 07:42:45;;;;;;;10.67;7.00;;;25.10;84.70;;;;;;5007210;28;21006;-80
2022/07/21 07:45:13;;;;;;;15.20;6.70;;;25.80;78.40;;;;;;5001453;28;20451;-81
2022/07/21 07:47:41;;;;;;;9.20;6.37;;;25.50;75.00;;;;;;5002211;28;20445;-81
2022/07/21 07:50:11;;;;;;;13.13;6.47;;;25.60;75.10;;;;;;5002381;28;20465;-81
2022/07/21 07:52:39;;;;;;;11.50;5.73;;;25.30;74.00;;;;;;5001694;28;20455;-81
2022/07/21 07:55:10;;;;;;;10.83;7.27;;;25.20;74.80;;;;;;5001429;28;20460;-81
2022/07/21 07:57:37;;;;;;;13.10;6.63;;;24.90;74.60;;;;;;5001258;28;20466;-81
2022/07/21 08:00:07;;;;;;;7.40;4.90;;;24.80;74.40;;;;;;5002261;28;20469;-81
2022/07/21 08:02:33;;;;;;;11.47;5.90;;;24.50;73.30;;;;;;5002339;28;20484;-81
2022/07/21 08:05:00;;;;;;;8.40;5.37;;;24.20;72.50;;;;;;5002135;28;20460;-81
2022/07/21 08:07:28;;;;;;;9.47;5.47;;;24.30;74.00;;;;;;5002553;28;20453;-80
2022/07/21 08:09:55;;;;;;;8.00;4.90;;;24.30;73.00;;;;;;5002363;28;20454;-81
2022/07/21 08:12:22;;;;;;;11.17;5.80;;;24.00;71.60;;;;;;5001754;28;20488;-80
2022/07/21 08:14:48;;;;;;;7.60;5.43;;;24.00;71.50;;;;;;5001492;28;20449;-81
2022/07/21 08:17:16;;;;;;;16.27;5.70;;;24.10;73.80;;;;;;5001172;28;20455;-82
2022/07/21 08:19:43;;;;;;;9.23;6.33;;;24.20;73.90;;;;;;5002066;28;20468;-81
2022/07/21 08:22:09;;;;;;;10.30;6.90;;;24.20;71.50;;;;;;5001853;28;20480;-81
2022/07/21 08:24:37;;;;;;;10.77;6.43;;;24.00;72.00;;;;;;5001321;28;20457;-81
2022/07/21 08:27:06;;;;;;;10.60;7.43;;;23.70;72.00;;;;;;5001919;28;20453;-83
2022/07/21 08:29:33;;;;;;;12.23;7.93;;;23.40;73.20;;;;;;5002144;28;20452;-81
2022/07/21 08:32:00;;;;;;;9.80;6.60;;;23.30;73.10;;;;;;5001843;28;20449;-81
2022/07/21 08:34:27;;;;;;;12.07;7.70;;;23.30;74.50;;;;;;5001166;28;20457;-82
2022/07/21 08:36:54;;;;;;;11.43;7.27;;;23.70;73.50;;;;;;5001252;28;20491;-82
2022/07/21 08:39:21;;;;;;;14.20;7.73;;;23.90;72.50;;;;;;5002116;28;20463;-82
2022/07/21 08:41:50;;;;;;;11.27;6.90;;;24.10;70.70;;;;;;5001278;28;20990;-81
2022/07/21 08:44:29;;;;;;;11.07;6.97;;;23.90;69.40;;;;;;5001130;28;20457;-81
2022/07/21 08:46:57;;;;;;;13.87;7.80;;;23.90;70.30;;;;;;5001225;28;20466;-81
2022/07/21 08:49:24;;;;;;;12.30;7.23;;;23.90;72.40;;;;;;5000731;28;20461;-83
2022/07/21 08:52:15;;;;;;;11.93;7.00;;;24.10;69.30;;;;;;5000519;28;21095;-83
2022/07/21 08:54:53;;;;;;;12.77;6.43;;;24.90;67.60;;;;;;5001136;28;20429;-83
2022/07/21 08:57:21;;;;;;;11.63;6.30;;;25.30;64.20;;;;;;5000827;28;20525;-84
2022/07/21 08:59:51;;;;;;;12.70;5.93;;;25.70;58.40;;;;;;5001218;28;20520;-84
2022/07/21 09:02:28;;;;;;;9.47;5.90;;;25.90;55.20;;;;;;5001107;28;20919;-82
2022/07/21 09:04:55;;;;;;;9.80;5.70;;;26.00;54.50;;;;;;5000376;28;20457;-84
2022/07/21 09:07:23;;;;;;;10.30;6.57;;;25.90;53.50;;;;;;5001473;28;20478;-83
2022/07/21 09:09:57;;;;;;;10.43;6.63;;;25.50;56.50;;;;;;5001648;28;20525;-82
2022/07/21 09:12:28;;;;;;;13.50;7.60;;;25.20;57.90;;;;;;5001379;28;20504;-84
2022/07/21 09:15:18;;;;;;;12.03;6.60;;;25.40;58.20;;;;;;5000725;28;20516;-84
2022/07/21 09:17:45;;;;;;;10.10;5.93;;;25.60;56.00;;;;;;5000812;28;20453;-84
2022/07/21 09:20:23;;;;;;;10.63;6.30;;;25.40;54.30;;;;;;5001168;28;20457;-84
2022/07/21 09:23:05;;;;;;;13.60;6.80;;;25.10;54.90;;;;;;5001109;28;20454;-84
2022/07/21 09:25:38;;;;;;;11.00;6.73;;;25.10;54.40;;;;;;4999492;28;20432;-83
2022/07/21 09:28:25;;;;;;;10.33;5.90;;;25.30;54.90;;;;;;5001077;28;20488;-83
2022/07/21 09:30:56;;;;;;;8.13;5.27;;;25.20;53.50;;;;;;4999294;28;20461;-84
2022/07/21 09:33:47;;;;;;;9.20;6.00;;;25.50;52.90;;;;;;5000160;28;20481;-84
2022/07/21 09:36:21;;;;;;;9.43;6.50;;;25.60;53.90;;;;;;4999464;28;20443;-83
2022/07/21 09:38:51;;;;;;;9.53;5.90;;;25.70;52.30;;;;;;5002259;28;20199;-86
2022/07/21 09:41:20;;;;;;;8.83;5.83;;;25.80;52.40;;;;;;5002399;28;20454;-85
2022/07/21 09:43:50;;;;;;;8.53;5.00;;;25.70;49.50;;;;;;5001942;28;20792;-85
2022/07/21 09:46:19;;;;;;;10.13;5.40;;;25.60;49.30;;;;;;5004370;28;20461;-85
2022/07/21 09:48:51;;;;;;;9.63;4.20;;;25.80;49.60;;;;;;5003566;28;20457;-86
2022/07/21 09:51:29;;;;;;;11.63;6.30;;;25.70;49.50;;;;;;4998401;28;20509;-85
2022/07/21 09:54:04;;;;;;;9.68;5.97;;;25.00;51.30;;;;;;4996854;28;20798;-86
2022/07/21 09:56:37;;;;;;;10.63;5.50;;;24.30;52.60;;;;;;4999124;28;20205;-85
2022/07/21 09:59:06;;;;;;;13.90;5.57;;;23.80;55.70;;;;;;5002931;28;20457;-85
2022/07/21 10:01:35;;;;;;;12.30;5.13;;;23.50;57.30;;;;;;5000428;28;20469;-84
2022/07/21 10:04:02;;;;;;;8.67;5.40;;;23.20;59.70;;;;;;5000975;28;20461;-85
2022/07/21 10:06:31;;;;;;;8.83;4.90;;;22.80;61.60;;;;;;4998489;28;20488;-86
2022/07/21 10:08:59;;;;;;;11.60;5.90;;;22.70;62.70;;;;;;4996206;28;20451;-83
2022/07/21 10:11:27;;;;;;;8.80;5.10;;;22.60;64.20;;;;;;4996318;28;20456;-83
2022/07/21 10:13:54;;;;;;;9.07;5.50;;;22.80;64.40;;;;;;4998187;28;20467;-85
2022/07/21 10:16:23;;;;;;;10.87;6.03;;;22.70;64.30;;;;;;4997277;28;20466;-84
2022/07/21 10:19:02;;;;;;;14.10;6.00;;;22.50;64.20;;;;;;4997581;28;20458;-84
2022/07/21 10:21:40;;;;;;;14.00;6.97;;;22.30;68.50;;;;;;4998158;28;20449;-84
2022/07/21 10:24:10;;;;;;;14.40;7.60;;;22.00;71.90;;;;;;4996612;28;20912;-83
2022/07/21 10:26:37;;;;;;;11.13;7.53;;;21.70;78.20;;;;;;4996745;28;20555;-83
2022/07/21 10:29:04;;;;;;;11.30;7.50;;;21.40;78.00;;;;;;4997021;28;20546;-83
2022/07/21 10:31:43;;;;;;;16.40;10.07;;;21.50;83.60;;;;;;4996716;28;20514;-83
2022/07/21 10:34:13;;;;;;;13.80;8.50;;;21.40;87.30;;;;;;4996881;28;20423;-84
2022/07/21 10:36:41;;;;;;;15.70;9.70;;;21.40;91.20;;;;;;4998261;28;20485;-84
2022/07/21 10:39:24;;;;;;;17.20;8.90;;;21.40;92.30;;;;;;5001720;28;20829;-85
2022/07/21 10:41:53;;;;;;;20.17;12.20;;;21.20;95.30;;;;;;5002880;28;20480;-85
2022/07/21 10:44:45;;;;;;;16.10;10.70;;;21.10;99.90;;;;;;5000540;28;21051;-86
2022/07/21 10:47:16;;;;;;;46.13;43.37;;;21.00;99.70;;;;;;4998497;28;20555;-85
2022/07/21 10:50:08;;;;;;;205.90;198.70;;;21.10;99.90;;;;;;4997266;28;20529;-85
2022/07/21 10:53:00;;;;;;;238.77;230.63;;;21.00;99.90;;;;;;4996988;28;20558;-85
2022/07/21 10:55:32;;;;;;;313.60;303.00;;;21.00;99.90;;;;;;4996968;28;20516;-85
2022/07/21 10:58:27;;;;;;;222.07;214.03;;;20.80;99.90;;;;;;4997153;28;20432;-86
2022/07/21 11:01:04;;;;;;;218.83;211.63;;;20.50;99.90;;;;;;4993644;28;20553;-84
2022/07/21 11:03:34;;;;;;;349.23;337.27;;;20.10;99.90;;;;;;4999700;28;20498;-85
2022/07/21 11:06:19;;;;;;;399.23;386.43;;;19.80;99.90;;;;;;5000550;28;21028;-85
2022/07/21 11:09:14;;;;;;;478.87;463.80;;;19.40;99.90;;;;;;5000601;28;20488;-83
2022/07/21 11:11:58;;;;;;;550.20;530.13;;;19.20;99.90;;;;;;5000886;28;20454;-87
2022/07/21 11:14:37;;;;;;;560.70;537.97;;;19.10;99.90;;;;;;5002951;28;20965;-85
2022/07/21 11:17:04;;;;;;;656.23;622.67;;;18.90;99.90;;;;;;5004518;28;20458;-84
2022/07/21 11:19:35;;;;;;;687.10;647.93;;;19.00;99.90;;;;;;5005100;28;20550;-85
2022/07/21 11:22:04;;;;;;;716.60;673.97;;;19.00;99.90;;;;;;5003809;28;20480;-85
2022/07/21 11:24:32;;;;;;;737.37;690.87;;;19.10;99.90;;;;;;5004969;28;20467;-87
2022/07/21 11:27:01;;;;;;;747.40;698.50;;;19.20;99.90;;;;;;5005505;28;20466;-84
2022/07/21 11:29:29;;;;;;;823.53;763.13;;;19.20;99.90;;;;;;5000634;28;20456;-85
2022/07/21 11:31:58;;;;;;;727.83;677.27;;;19.40;99.90;;;;;;5000765;28;20615;-84
2022/07/21 11:34:25;;;;;;;749.50;696.70;;;19.40;99.90;;;;;;5001025;28;20466;-83
2022/07/21 11:37:09;;;;;;;754.60;698.83;;;19.60;99.90;;;;;;5001128;28;20455;-84
2022/07/21 11:39:37;;;;;;;729.03;675.70;;;19.60;99.90;;;;;;5000775;28;20459;-84
2022/07/21 11:42:05;;;;;;;740.53;686.07;;;19.60;99.90;;;;;;5000876;28;20485;-83
2022/07/21 11:44:32;;;;;;;764.30;706.63;;;19.60;99.90;;;;;;5001003;28;20464;-83
2022/07/21 11:47:06;;;;;;;754.07;701.20;;;19.70;99.90;;;;;;5000959;28;20459;-83
2022/07/21 11:49:36;;;;;;;748.43;697.10;;;19.80;99.90;;;;;;5002312;28;20865;-83
2022/07/21 11:52:06;;;;;;;751.77;699.87;;;19.80;99.90;;;;;;5000789;28;20564;-82
2022/07/21 11:54:35;;;;;;;744.03;693.77;;;19.80;99.90;;;;;;5000479;28;20542;-83
2022/07/21 11:57:05;;;;;;;697.73;651.30;;;19.80;99.90;;;;;;5001992;28;20472;-83
2022/07/21 11:59:32;;;;;;;727.77;677.87;;;19.60;99.90;;;;;;5001119;28;20456;-83
2022/07/21 12:02:02;;;;;;;785.50;730.90;;;19.70;99.90;;;;;;5001666;28;20484;-83
2022/07/21 12:04:38;;;;;;;782.43;729.43;;;19.60;99.90;;;;;;5001003;28;20465;-83
2022/07/21 12:07:10;;;;;;;738.70;686.87;;;19.50;99.90;;;;;;5002274;28;20960;-83
2022/07/21 12:09:40;;;;;;;755.27;700.17;;;19.30;99.90;;;;;;5002529;28;20558;-83
2022/07/21 12:12:08;;;;;;;781.17;726.50;;;19.30;99.90;;;;;;5002888;28;20484;-83
2022/07/21 12:14:50;;;;;;;790.10;734.83;;;19.20;99.90;;;;;;5002076;28;20451;-82
2022/07/21 12:17:31;;;;;;;807.40;749.47;;;19.20;99.90;;;;;;5001401;28;20454;-83
2022/07/21 12:19:58;;;;;;;822.83;762.07;;;19.10;99.90;;;;;;5002276;28;20467;-83
2022/07/21 12:22:35;;;;;;;857.60;791.13;;;19.10;99.90;;;;;;5001867;28;20479;-82
2022/07/21 12:25:02;;;;;;;881.67;812.67;;;19.10;99.90;;;;;;5000631;28;20459;-83
2022/07/21 12:27:51;;;;;;;847.77;777.27;;;19.20;99.90;;;;;;5002056;28;20476;-83
2022/07/21 12:30:32;;;;;;;897.37;827.00;;;19.30;99.90;;;;;;4999604;28;20563;-82
2022/07/21 12:33:04;;;;;;;864.67;799.73;;;19.30;99.90;;;;;;4999703;28;20479;-82
2022/07/21 12:35:32;;;;;;;872.13;802.40;;;19.30;99.90;;;;;;4999715;28;20456;-82
2022/07/21 12:38:28;;;;;;;872.33;799.47;;;19.40;99.90;;;;;;5000477;28;20465;-82
2022/07/21 12:41:16;;;;;;;889.77;811.87;;;19.40;99.90;;;;;;5000375;28;21014;-82
2022/07/21 12:43:43;;;;;;;836.67;764.53;;;19.60;99.90;;;;;;5000515;28;20514;-83
2022/07/21 12:46:15;;;;;;;840.63;767.83;;;19.80;99.90;;;;;;5000787;28;20493;-83
2022/07/21 12:48:43;;;;;;;825.43;755.70;;;19.90;99.90;;;;;;5000388;28;20562;-83
2022/07/21 12:51:27;;;;;;;789.70;724.77;;;19.80;99.90;;;;;;5000075;28;20459;-83
2022/07/21 12:53:56;;;;;;;746.03;694.93;;;19.60;99.90;;;;;;4999197;28;20464;-82
2022/07/21 12:56:24;;;;;;;716.57;668.67;;;19.10;99.90;;;;;;5000309;28;20834;-83
2022/07/21 12:58:54;;;;;;;723.83;671.63;;;18.50;99.90;;;;;;5000009;28;20450;-84
2022/07/21 13:01:22;;;;;;;762.13;703.40;;;18.00;99.90;;;;;;4999962;28;20458;-83
2022/07/21 13:03:49;;;;;;;770.40;713.40;;;18.00;99.90;;;;;;4999913;28;20458;-82
2022/07/21 13:06:16;;;;;;;771.57;713.80;;;17.80;99.90;;;;;;5000066;28;20453;-84
2022/07/21 13:08:44;;;;;;;774.43;719.23;;;17.80;99.90;;;;;;4998143;28;20498;-83
2022/07/21 13:11:14;;;;;;;946.22;858.35;;;17.90;99.90;;;;;;4998393;28;20464;-84
2022/07/21 13:13:41;;;;;;;843.00;769.20;;;18.10;99.90;;;;;;5001973;28;20219;-84
2022/07/21 13:16:08;;;;;;;833.47;758.67;;;18.30;99.90;;;;;;5001521;28;20466;-84